Time;durP1;ratioP1;P1;durP2;ratioP2;P2;SDS_P1;SDS_P2;PMS_P1;PMS_P2;Temp;Humidity;BMP_temperature;BMP_pressure;BME280_temperature;BME280_humidity;BME280_pressure;Samples;Min_cycle;Max_cycle;Signal;HPM_P1;HPM_P2
2023/05/29 00:00:29;;;;;;;4.80;2.10;;;;;;;;;;5017681;28;20120;-81
2023/05/29 00:02:54;;;;;;;5.97;1.60;;;;;;;;;;5003398;28;20060;-80
2023/05/29 00:05:19;;;;;;;5.75;2.05;;;;;;;;;;5035411;28;20034;-81
2023/05/29 00:07:45;;;;;;;5.05;1.80;;;;;;;;;;5034996;28;20547;-81
2023/05/29 00:10:11;;;;;;;4.65;2.08;;;;;;;;;;5000776;28;20052;-82
2023/05/29 00:12:38;;;;;;;7.25;2.03;;;;;;;;;;5017762;28;20029;-81
2023/05/29 00:15:04;;;;;;;5.65;2.20;;;;;;;;;;5033985;28;20025;-82
2023/05/29 00:17:32;;;;;;;4.78;1.90;;;;;;;;;;5017066;28;20041;-81
2023/05/29 00:19:58;;;;;;;4.70;1.92;;;;;;;;;;5034671;28;20025;-82
2023/05/29 00:22:24;;;;;;;4.53;1.98;;;;;;;;;;5000913;28;20154;-82
2023/05/29 00:24:49;;;;;;;4.20;1.83;;;;;;;;;;5017293;28;20057;-82
2023/05/29 00:27:15;;;;;;;4.05;1.70;;;;;;;;;;5017420;28;20029;-82
2023/05/29 00:29:40;;;;;;;7.25;2.00;;;;;;;;;;5016742;28;20037;-83
2023/05/29 00:32:06;;;;;;;6.82;1.98;;;;;;;;;;5016838;28;20032;-80
2023/05/29 00:34:31;;;;;;;6.15;2.00;;;;;;;;;;5034724;28;20380;-81
2023/05/29 00:36:58;;;;;;;8.05;1.95;;;;;;;;;;5034506;28;20071;-81
2023/05/29 00:39:24;;;;;;;5.38;1.90;;;;;;;;;;5016598;28;20040;-82
2023/05/29 00:41:50;;;;;;;6.22;1.98;;;;;;;;;;5016549;28;20050;-80
2023/05/29 00:44:17;;;;;;;6.25;2.13;;;;;;;;;;5034174;28;20025;-81
2023/05/29 00:46:43;;;;;;;3.50;1.73;;;;;;;;;;5034099;28;20072;-81
2023/05/29 00:49:08;;;;;;;5.93;2.03;;;;;;;;;;5016309;28;20029;-81
2023/05/29 00:51:34;;;;;;;3.38;1.60;;;;;;;;;;5016373;28;20108;-81
2023/05/29 00:53:59;;;;;;;2.90;1.58;;;;;;;;;;5016364;28;20033;-81
2023/05/29 00:56:25;;;;;;;4.93;1.58;;;;;;;;;;5000015;28;20087;-81
2023/05/29 00:58:51;;;;;;;3.67;1.90;;;;;;;;;;5000107;28;20033;-81
2023/05/29 01:01:21;;;;;;;6.30;1.90;;;;;;;;;;4999658;28;20025;-81
2023/05/29 01:03:48;;;;;;;3.63;1.80;;;;;;;;;;5016328;28;20056;-81
2023/05/29 01:06:14;;;;;;;4.15;1.83;;;;;;;;;;4999896;28;20032;-81
2023/05/29 01:08:39;;;;;;;3.63;1.75;;;;;;;;;;5016063;28;20033;-81
2023/05/29 01:11:12;;;;;;;4.63;1.83;;;;;;;;;;5033645;28;20026;-81
2023/05/29 01:13:39;;;;;;;4.40;1.60;;;;;;;;;;5016119;28;20049;-81
2023/05/29 01:16:12;;;;;;;3.65;1.60;;;;;;;;;;5033589;28;20469;-81
2023/05/29 01:18:51;;;;;;;;;;;;;;;;;;5016289;28;20025;-82
2023/05/29 01:21:37;;;;;;;4.90;1.45;;;;;;;;;;4999598;28;20376;-81
2023/05/29 01:24:09;;;;;;;4.43;1.50;;;;;;;;;;5033518;28;20029;-81
2023/05/29 01:26:37;;;;;;;5.78;1.92;;;;;;;;;;5015541;28;20099;-82
2023/05/29 01:29:05;;;;;;;4.82;1.70;;;;;;;;;;5033527;28;20030;-82
2023/05/29 01:31:31;;;;;;;9.40;2.15;;;;;;;;;;4999239;28;20033;-82
2023/05/29 01:33:58;;;;;;;5.80;2.10;;;;;;;;;;4999221;28;20040;-81
2023/05/29 01:36:24;;;;;;;4.72;1.58;;;;;;;;;;5016349;28;20473;-81
2023/05/29 01:38:51;;;;;;;3.92;1.60;;;;;;;;;;5015741;28;20025;-81
2023/05/29 01:41:18;;;;;;;5.13;1.80;;;;;;;;;;4984368;28;20516;-82
2023/05/29 01:43:44;;;;;;;5.10;1.58;;;;;;;;;;4995966;28;20073;-82
2023/05/29 01:46:11;;;;;;;4.18;1.70;;;;;;;;;;4996023;28;20030;-82
2023/05/29 01:48:37;;;;;;;4.78;1.63;;;;;;;;;;4963737;28;20442;-82
2023/05/29 01:51:02;;;;;;;3.97;1.60;;;;;;;;;;4963661;28;20058;-81
2023/05/29 01:53:28;;;;;;;3.50;1.88;;;;;;;;;;4996137;28;20030;-81
2023/05/29 01:55:53;;;;;;;4.03;1.52;;;;;;;;;;4995943;28;20118;-80
2023/05/29 01:58:20;;;;;;;4.47;1.58;;;;;;;;;;4995770;28;20129;-80
2023/05/29 02:00:46;;;;;;;5.90;1.98;;;;;;;;;;4995802;28;20108;-81
2023/05/29 02:03:11;;;;;;;4.15;1.70;;;;;;;;;;4995552;28;20112;-82
2023/05/29 02:05:37;;;;;;;3.90;1.67;;;;;;;;;;4995762;28;20033;-81
2023/05/29 02:08:02;;;;;;;5.30;1.80;;;;;;;;;;4979477;28;20038;-81
2023/05/29 02:10:27;;;;;;;5.50;1.50;;;;;;;;;;4995566;28;20037;-81
2023/05/29 02:12:53;;;;;;;4.55;1.80;;;;;;;;;;5013133;28;20026;-82
2023/05/29 02:15:18;;;;;;;4.43;1.52;;;;;;;;;;4995574;28;20030;-82
2023/05/29 02:17:44;;;;;;;3.47;1.50;;;;;;;;;;5013375;28;20381;-82
2023/05/29 02:20:10;;;;;;;3.05;1.50;;;;;;;;;;4995498;28;20026;-82
2023/05/29 02:22:36;;;;;;;5.63;1.98;;;;;;;;;;4979362;28;20473;-82
2023/05/29 02:25:01;;;;;;;4.63;1.63;;;;;;;;;;5013004;28;20026;-81
2023/05/29 02:27:26;;;;;;;5.20;1.80;;;;;;;;;;4995564;28;20127;-81
2023/05/29 02:29:52;;;;;;;4.65;1.48;;;;;;;;;;4995883;28;20544;-81
2023/05/29 02:32:17;;;;;;;5.22;1.90;;;;;;;;;;4995478;28;20034;-81
2023/05/29 02:34:43;;;;;;;3.75;1.50;;;;;;;;;;4979735;28;20048;-81
2023/05/29 02:37:08;;;;;;;4.38;1.73;;;;;;;;;;4979221;28;20376;-81
2023/05/29 02:39:33;;;;;;;5.10;1.58;;;;;;;;;;5017762;28;20026;-81
2023/05/29 02:41:59;;;;;;;5.03;1.80;;;;;;;;;;5018670;28;20037;-81
2023/05/29 02:44:24;;;;;;;3.50;1.50;;;;;;;;;;5036457;28;20037;-81
2023/05/29 02:46:50;;;;;;;4.28;1.85;;;;;;;;;;5018533;28;20068;-81
2023/05/29 02:49:15;;;;;;;3.70;1.38;;;;;;;;;;5036179;28;20032;-82
2023/05/29 02:51:40;;;;;;;4.63;1.95;;;;;;;;;;5019008;28;20040;-82
2023/05/29 02:54:06;;;;;;;3.47;1.58;;;;;;;;;;5036068;28;20037;-81
2023/05/29 02:56:31;;;;;;;4.45;1.63;;;;;;;;;;5036160;28;20030;-81
2023/05/29 02:58:56;;;;;;;2.85;1.52;;;;;;;;;;5002027;28;20025;-81
2023/05/29 03:01:22;;;;;;;3.42;1.63;;;;;;;;;;5036087;28;20392;-81
2023/05/29 03:03:47;;;;;;;4.30;1.50;;;;;;;;;;5036108;28;20033;-81
2023/05/29 03:06:12;;;;;;;5.30;1.80;;;;;;;;;;5035798;28;20108;-81
2023/05/29 03:08:41;;;;;;;3.45;1.50;;;;;;;;;;5035691;28;20037;-81
2023/05/29 03:11:10;;;;;;;2.28;1.42;;;;;;;;;;5035725;28;20025;-81
2023/05/29 03:13:36;;;;;;;2.88;1.52;;;;;;;;;;5018319;28;20385;-81
2023/05/29 03:16:02;;;;;;;4.88;1.33;;;;;;;;;;5035988;28;20033;-81
2023/05/29 03:18:27;;;;;;;5.63;1.83;;;;;;;;;;5035806;28;20084;-81
2023/05/29 03:20:53;;;;;;;3.20;1.25;;;;;;;;;;5001799;28;20029;-81
2023/05/29 03:23:19;;;;;;;5.93;1.38;;;;;;;;;;5001918;28;20056;-81
2023/05/29 03:25:44;;;;;;;4.93;1.63;;;;;;;;;;5017803;28;20029;-82
2023/05/29 03:28:10;;;;;;;5.63;1.67;;;;;;;;;;5017681;28;20029;-81
2023/05/29 03:30:35;;;;;;;3.17;1.73;;;;;;;;;;5017869;28;20037;-81
2023/05/29 03:33:03;;;;;;;4.43;1.63;;;;;;;;;;5001355;28;20029;-82
2023/05/29 03:35:29;;;;;;;5.28;1.50;;;;;;;;;;5018064;28;20112;-82
2023/05/29 03:37:55;;;;;;;4.25;1.50;;;;;;;;;;5017751;28;20025;-82
2023/05/29 03:40:20;;;;;;;3.35;1.77;;;;;;;;;;4977715;28;20112;-82
2023/05/29 03:42:45;;;;;;;5.18;1.70;;;;;;;;;;4997855;28;20026;-81
2023/05/29 03:45:11;;;;;;;3.13;1.52;;;;;;;;;;5015351;28;20496;-82
2023/05/29 03:47:36;;;;;;;6.35;1.70;;;;;;;;;;5015410;28;20481;-82
2023/05/29 03:50:02;;;;;;;2.83;1.40;;;;;;;;;;5013597;28;20038;-82
2023/05/29 03:52:27;;;;;;;4.50;1.75;;;;;;;;;;4965377;28;20034;-82
2023/05/29 03:54:52;;;;;;;3.25;1.38;;;;;;;;;;4997633;28;20038;-82
2023/05/29 03:57:18;;;;;;;3.60;1.40;;;;;;;;;;4981803;28;20502;-81
2023/05/29 03:59:43;;;;;;;3.72;1.50;;;;;;;;;;5015404;28;20401;-81
2023/05/29 04:02:08;;;;;;;4.13;1.70;;;;;;;;;;4981353;28;20105;-82
2023/05/29 04:04:34;;;;;;;3.28;1.17;;;;;;;;;;4998060;28;20040;-80
2023/05/29 04:07:00;;;;;;;3.03;1.40;;;;;;;;;;5015403;28;20109;-82
2023/05/29 04:09:25;;;;;;;4.22;1.40;;;;;;;;;;4997772;28;20113;-80
2023/05/29 04:11:51;;;;;;;2.80;1.40;;;;;;;;;;5015246;28;20392;-81
2023/05/29 04:14:17;;;;;;;4.90;1.80;;;;;;;;;;4997324;28;20029;-81
2023/05/29 04:16:43;;;;;;;4.30;1.60;;;;;;;;;;5015371;28;20045;-82
2023/05/29 04:19:08;;;;;;;2.95;1.42;;;;;;;;;;4997937;28;20026;-82
2023/05/29 04:21:34;;;;;;;4.35;1.50;;;;;;;;;;5014879;28;20034;-81
2023/05/29 04:24:00;;;;;;;3.40;1.40;;;;;;;;;;5014872;28;20381;-81
2023/05/29 04:26:25;;;;;;;3.92;1.45;;;;;;;;;;4981055;28;20033;-81
2023/05/29 04:28:57;;;;;;;3.38;1.40;;;;;;;;;;5014989;28;20058;-81
2023/05/29 04:31:26;;;;;;;4.43;1.60;;;;;;;;;;4981457;28;20026;-81
2023/05/29 04:33:54;;;;;;;4.35;1.45;;;;;;;;;;4997379;28;20088;-81
2023/05/29 04:36:26;;;;;;;2.70;1.30;;;;;;;;;;4997960;28;20026;-81
2023/05/29 04:38:53;;;;;;;3.97;1.52;;;;;;;;;;5015187;28;20454;-81
2023/05/29 04:41:18;;;;;;;3.17;1.42;;;;;;;;;;5029417;28;20057;-81
2023/05/29 04:43:43;;;;;;;5.07;1.80;;;;;;;;;;5016564;28;20055;-82
2023/05/29 04:46:12;;;;;;;3.03;1.40;;;;;;;;;;5034480;28;20030;-81
2023/05/29 04:48:40;;;;;;;6.05;1.73;;;;;;;;;;5016912;28;20477;-81
2023/05/29 04:51:06;;;;;;;4.90;1.42;;;;;;;;;;5017138;28;20029;-81
2023/05/29 04:53:31;;;;;;;3.60;1.40;;;;;;;;;;5016415;28;20030;-81
2023/05/29 04:55:57;;;;;;;4.70;1.40;;;;;;;;;;5034040;28;20072;-81
2023/05/29 04:58:25;;;;;;;5.40;1.50;;;;;;;;;;5034227;28;20381;-81
2023/05/29 05:00:51;;;;;;;2.55;1.38;;;;;;;;;;5016012;28;20088;-80
2023/05/29 05:03:16;;;;;;;4.05;1.52;;;;;;;;;;5033782;28;20033;-81
2023/05/29 05:05:43;;;;;;;4.00;1.40;;;;;;;;;;4999996;28;20033;-81
2023/05/29 05:08:09;;;;;;;3.83;1.17;;;;;;;;;;5033815;28;20036;-81
2023/05/29 05:10:35;;;;;;;5.72;1.58;;;;;;;;;;5034077;28;20083;-80
2023/05/29 05:13:02;;;;;;;2.63;1.33;;;;;;;;;;5033682;28;20112;-79
2023/05/29 05:15:28;;;;;;;3.35;1.50;;;;;;;;;;5034019;28;20030;-82
2023/05/29 05:17:53;;;;;;;4.57;1.77;;;;;;;;;;5015927;28;20030;-83
2023/05/29 05:20:19;;;;;;;2.90;1.27;;;;;;;;;;5033571;28;20495;-80
2023/05/29 05:22:44;;;;;;;9.35;2.22;;;;;;;;;;5016028;28;20021;-81
2023/05/29 05:25:11;;;;;;;5.45;2.05;;;;;;;;;;5033765;28;20045;-82
2023/05/29 05:27:36;;;;;;;5.43;2.00;;;;;;;;;;5016401;28;20022;-81
2023/05/29 05:30:06;;;;;;;5.55;2.38;;;;;;;;;;5015792;28;20385;-83
2023/05/29 05:32:32;;;;;;;5.45;2.20;;;;;;;;;;5033966;28;20033;-81
2023/05/29 05:34:57;;;;;;;5.57;1.92;;;;;;;;;;5033634;28;20361;-82
2023/05/29 05:37:23;;;;;;;6.00;2.22;;;;;;;;;;5033423;28;20029;-82
2023/05/29 05:39:50;;;;;;;7.50;2.50;;;;;;;;;;5015524;28;20144;-82
2023/05/29 05:42:15;;;;;;;4.93;2.33;;;;;;;;;;4999331;28;20120;-81
2023/05/29 05:44:41;;;;;;;6.15;2.60;;;;;;;;;;5033239;28;20449;-81
2023/05/29 05:47:06;;;;;;;5.15;2.38;;;;;;;;;;5015642;28;20467;-81
2023/05/29 05:49:32;;;;;;;5.38;2.20;;;;;;;;;;5015853;28;20044;-82
2023/05/29 05:51:57;;;;;;;9.77;2.42;;;;;;;;;;5034541;28;20030;-81
2023/05/29 05:54:22;;;;;;;5.43;2.25;;;;;;;;;;5018122;28;20480;-82
2023/05/29 05:56:48;;;;;;;6.03;2.30;;;;;;;;;;5035005;28;20499;-81
2023/05/29 05:59:13;;;;;;;6.20;2.20;;;;;;;;;;5017010;28;20025;-82
2023/05/29 06:01:41;;;;;;;7.88;2.45;;;;;;;;;;5018117;28;20495;-82
2023/05/29 06:04:06;;;;;;;6.07;2.30;;;;;;;;;;5018279;28;20116;-80
2023/05/29 06:06:32;;;;;;;4.05;2.13;;;;;;;;;;5017490;28;20050;-78
2023/05/29 06:08:58;;;;;;;5.38;2.53;;;;;;;;;;5035699;28;20022;-80
2023/05/29 06:11:25;;;;;;;8.23;2.35;;;;;;;;;;5035846;28;20029;-80
2023/05/29 06:13:52;;;;;;;4.35;1.95;;;;;;;;;;5021114;28;20058;-78
2023/05/29 06:16:17;;;;;;;9.30;2.25;;;;;;;;;;5004389;28;20030;-79
2023/05/29 06:18:44;;;;;;;6.50;2.47;;;;;;;;;;5038361;28;20531;-79
2023/05/29 06:21:09;;;;;;;7.13;2.10;;;;;;;;;;5003946;28;20032;-79
2023/05/29 06:23:36;;;;;;;3.50;1.85;;;;;;;;;;5019462;28;20033;-79
2023/05/29 06:26:03;;;;;;;5.28;1.90;;;;;;;;;;5019230;28;20396;-79
2023/05/29 06:28:28;;;;;;;5.90;2.08;;;;;;;;;;5037305;28;20061;-79
2023/05/29 06:30:54;;;;;;;5.55;2.03;;;;;;;;;;5019692;28;20409;-79
2023/05/29 06:33:21;;;;;;;5.82;2.05;;;;;;;;;;5037759;28;20072;-79
2023/05/29 06:35:46;;;;;;;4.85;1.88;;;;;;;;;;5020768;28;20040;-79
2023/05/29 06:38:12;;;;;;;4.85;2.10;;;;;;;;;;5037852;28;20037;-79
2023/05/29 06:40:37;;;;;;;5.93;2.03;;;;;;;;;;5019694;28;20213;-80
2023/05/29 06:43:03;;;;;;;10.65;2.30;;;;;;;;;;5038372;28;20168;-79
2023/05/29 06:45:28;;;;;;;7.28;2.05;;;;;;;;;;5038599;28;20037;-80
2023/05/29 06:47:55;;;;;;;7.25;1.85;;;;;;;;;;5004849;28;20120;-79
2023/05/29 06:50:20;;;;;;;6.07;2.20;;;;;;;;;;5020693;28;20026;-79
2023/05/29 06:52:46;;;;;;;7.03;2.53;;;;;;;;;;5037640;28;20048;-79
2023/05/29 06:55:11;;;;;;;4.45;1.70;;;;;;;;;;5037413;28;20025;-80
2023/05/29 06:57:36;;;;;;;3.15;1.77;;;;;;;;;;5034135;28;20029;-80
2023/05/29 07:00:05;;;;;;;4.75;1.90;;;;;;;;;;5018133;28;20025;-80
2023/05/29 07:02:30;;;;;;;4.32;1.95;;;;;;;;;;5018793;28;20105;-82
2023/05/29 07:04:56;;;;;;;5.85;2.00;;;;;;;;;;5018506;28;20040;-79
2023/05/29 07:07:21;;;;;;;4.00;1.50;;;;;;;;;;5018344;28;20076;-82
2023/05/29 07:09:47;;;;;;;17.08;6.70;;;;;;;;;;5018736;28;20508;-82
2023/05/29 07:12:12;;;;;;;22.10;5.85;;;;;;;;;;5019103;28;20029;-82
2023/05/29 07:14:37;;;;;;;27.33;6.43;;;;;;;;;;5019537;28;20124;-81
2023/05/29 07:17:03;;;;;;;31.25;7.70;;;;;;;;;;5019279;28;20064;-82
2023/05/29 07:19:29;;;;;;;31.70;7.85;;;;;;;;;;5019376;28;20039;-83
2023/05/29 07:21:54;;;;;;;27.10;6.03;;;;;;;;;;5019295;28;20037;-83
2023/05/29 07:24:20;;;;;;;24.35;5.75;;;;;;;;;;5036903;28;20404;-83
2023/05/29 07:26:45;;;;;;;19.23;6.22;;;;;;;;;;5036474;28;20029;-80
2023/05/29 07:29:11;;;;;;;16.92;5.47;;;;;;;;;;5018852;28;20030;-82
2023/05/29 07:31:40;;;;;;;21.63;5.00;;;;;;;;;;5019552;28;20036;-81
2023/05/29 07:34:05;;;;;;;18.02;4.45;;;;;;;;;;5037457;28;20395;-81
2023/05/29 07:36:31;;;;;;;21.00;4.85;;;;;;;;;;5036931;28;20117;-81
2023/05/29 07:38:58;;;;;;;15.38;4.00;;;;;;;;;;5037428;28;20492;-82
2023/05/29 07:41:23;;;;;;;16.45;4.20;;;;;;;;;;5017978;28;20041;-81
2023/05/29 07:43:51;;;;;;;15.73;3.90;;;;;;;;;;5000816;28;20429;-81
2023/05/29 07:46:17;;;;;;;16.27;4.18;;;;;;;;;;5017630;28;20048;-81
2023/05/29 07:48:43;;;;;;;13.48;3.28;;;;;;;;;;5017077;28;20060;-82
2023/05/29 07:51:10;;;;;;;12.32;3.63;;;;;;;;;;5034898;28;20041;-81
2023/05/29 07:53:35;;;;;;;10.20;3.30;;;;;;;;;;5017315;28;20440;-82
2023/05/29 07:56:01;;;;;;;19.08;3.53;;;;;;;;;;5000500;28;20033;-82
2023/05/29 07:58:27;;;;;;;12.38;3.10;;;;;;;;;;5016906;28;20030;-82
2023/05/29 08:00:52;;;;;;;10.90;2.63;;;;;;;;;;5034477;28;20038;-82
2023/05/29 08:03:18;;;;;;;12.13;3.22;;;;;;;;;;5016926;28;20059;-81
2023/05/29 08:05:44;;;;;;;9.82;2.97;;;;;;;;;;5016772;28;20033;-80
2023/05/29 08:08:12;;;;;;;9.85;2.42;;;;;;;;;;5000353;28;20037;-81
2023/05/29 08:10:38;;;;;;;6.85;2.47;;;;;;;;;;5032401;28;20104;-81
2023/05/29 08:13:03;;;;;;;16.92;3.17;;;;;;;;;;5016848;28;20181;-83
2023/05/29 08:15:29;;;;;;;9.20;2.45;;;;;;;;;;5034259;28;20029;-80
2023/05/29 08:17:54;;;;;;;7.18;2.97;;;;;;;;;;5016563;28;20104;-81
2023/05/29 08:20:20;;;;;;;7.38;2.45;;;;;;;;;;5016488;28;20032;-81
2023/05/29 08:22:46;;;;;;;9.13;2.22;;;;;;;;;;5034622;28;20025;-81
2023/05/29 08:25:12;;;;;;;8.20;2.75;;;;;;;;;;5016745;28;20473;-81
2023/05/29 08:27:37;;;;;;;6.00;2.20;;;;;;;;;;5034591;28;20029;-80
2023/05/29 08:30:03;;;;;;;5.82;2.10;;;;;;;;;;5034288;28;20448;-80
2023/05/29 08:32:29;;;;;;;9.30;2.40;;;;;;;;;;5034630;28;20056;-80
2023/05/29 08:34:54;;;;;;;6.82;2.10;;;;;;;;;;5016398;28;20049;-79
2023/05/29 08:37:20;;;;;;;3.88;1.80;;;;;;;;;;5000390;28;20045;-81
2023/05/29 08:39:45;;;;;;;6.18;2.20;;;;;;;;;;5016500;28;20064;-81
2023/05/29 08:42:25;;;;;;;7.55;2.45;;;;;;;;;;5034138;28;20052;-81
2023/05/29 08:44:55;;;;;;;6.80;1.92;;;;;;;;;;5034316;28;20025;-80
2023/05/29 08:47:22;;;;;;;7.35;2.13;;;;;;;;;;4999906;28;20068;-80
2023/05/29 08:49:53;;;;;;;6.97;1.77;;;;;;;;;;5015870;28;20033;-80
2023/05/29 08:52:27;;;;;;;10.52;2.00;;;;;;;;;;5016292;28;20022;-80
2023/05/29 08:54:54;;;;;;;4.45;2.08;;;;;;;;;;5034009;28;20385;-79
2023/05/29 08:57:20;;;;;;;3.92;1.92;;;;;;;;;;5016182;28;20061;-81
2023/05/29 08:59:49;;;;;;;5.55;1.67;;;;;;;;;;4999983;28;20025;-80
2023/05/29 09:02:15;;;;;;;3.80;1.63;;;;;;;;;;5033780;28;20033;-80
2023/05/29 09:04:49;;;;;;;11.55;2.33;;;;;;;;;;5034221;28;20052;-79
2023/05/29 09:07:17;;;;;;;5.53;1.85;;;;;;;;;;5000154;28;20084;-79
2023/05/29 09:09:42;;;;;;;8.05;1.85;;;;;;;;;;5033094;28;20029;-80
2023/05/29 09:12:09;;;;;;;6.90;1.98;;;;;;;;;;5015393;28;20034;-80
2023/05/29 09:14:42;;;;;;;5.97;2.00;;;;;;;;;;5015347;28;20117;-80
2023/05/29 09:17:09;;;;;;;4.70;2.25;;;;;;;;;;4999455;28;20041;-80
2023/05/29 09:19:40;;;;;;;11.73;2.30;;;;;;;;;;5013526;28;20106;-80
2023/05/29 09:22:07;;;;;;;8.18;2.83;;;;;;;;;;5016333;28;20472;-79
2023/05/29 09:24:34;;;;;;;8.18;2.25;;;;;;;;;;5015656;28;20037;-80
2023/05/29 09:27:00;;;;;;;8.73;2.53;;;;;;;;;;4999108;28;20052;-80
2023/05/29 09:29:27;;;;;;;9.27;2.50;;;;;;;;;;5032984;28;20456;-81
2023/05/29 09:31:52;;;;;;;10.02;3.03;;;;;;;;;;5016381;28;20025;-82
2023/05/29 09:34:18;;;;;;;12.02;3.10;;;;;;;;;;5032954;28;20377;-79
2023/05/29 09:36:43;;;;;;;8.50;2.28;;;;;;;;;;5032913;28;20033;-81
2023/05/29 09:39:14;;;;;;;8.18;2.22;;;;;;;;;;5033715;28;20029;-81
2023/05/29 09:41:43;;;;;;;6.13;2.15;;;;;;;;;;5022189;28;20105;-79
2023/05/29 09:44:13;;;;;;;6.45;2.70;;;;;;;;;;5006171;28;20411;-79
2023/05/29 09:46:42;;;;;;;8.57;2.35;;;;;;;;;;5023623;28;20025;-80
2023/05/29 09:49:14;;;;;;;9.35;2.03;;;;;;;;;;5007181;28;20066;-81
2023/05/29 09:51:41;;;;;;;7.35;2.53;;;;;;;;;;5026231;28;20112;-82
2023/05/29 09:54:14;;;;;;;11.00;2.10;;;;;;;;;;5006066;28;20033;-82
2023/05/29 09:56:42;;;;;;;8.57;2.30;;;;;;;;;;5023998;28;20036;-82
2023/05/29 09:59:10;;;;;;;5.38;1.90;;;;;;;;;;5009255;28;20025;-82
2023/05/29 10:01:35;;;;;;;10.90;2.10;;;;;;;;;;5007926;28;20041;-81
2023/05/29 10:04:02;;;;;;;12.32;2.60;;;;;;;;;;5012755;28;20029;-81
2023/05/29 10:06:29;;;;;;;7.97;2.60;;;;;;;;;;5018745;28;20115;-81
2023/05/29 10:08:55;;;;;;;19.48;4.78;;;;;;;;;;5018722;28;20029;-81
2023/05/29 10:11:26;;;;;;;24.27;6.40;;;;;;;;;;5035243;28;20025;-82
2023/05/29 10:13:52;;;;;;;23.88;5.03;;;;;;;;;;5036014;28;20075;-83
2023/05/29 10:16:23;;;;;;;15.68;4.93;;;;;;;;;;5018517;28;20027;-81
2023/05/29 10:18:57;;;;;;;20.92;4.28;;;;;;;;;;5035466;28;20021;-82
2023/05/29 10:21:27;;;;;;;14.77;4.43;;;;;;;;;;5035018;28;20480;-82
2023/05/29 10:23:54;;;;;;;12.85;4.80;;;;;;;;;;5034917;28;20037;-82
2023/05/29 10:26:22;;;;;;;18.35;3.53;;;;;;;;;;5034964;28;20028;-82
2023/05/29 10:29:17;;;;;;;10.20;3.85;;;;;;;;;;5035064;28;20491;-82
2023/05/29 10:32:22;;;;;;;10.93;3.20;;;;;;;;;;5034888;28;20071;-82
2023/05/29 10:35:08;;;;;;;8.88;3.08;;;;;;;;;;5041684;28;20122;-81
2023/05/29 10:37:42;;;;;;;9.88;3.08;;;;;;;;;;5035227;28;20439;-81
2023/05/29 10:40:12;;;;;;;14.20;2.88;;;;;;;;;;5052650;28;20080;-81
2023/05/29 10:42:46;;;;;;;12.07;2.97;;;;;;;;;;5035600;28;20594;-81
2023/05/29 10:45:31;;;;;;;;;;;;;;;;;;5035582;28;20029;-81
2023/05/29 10:48:12;;;;;;;9.85;2.78;;;;;;;;;;5035167;28;19956;-81
2023/05/29 10:50:45;;;;;;;6.43;2.88;;;;;;;;;;5035974;28;20025;-81
2023/05/29 10:53:14;;;;;;;11.40;2.90;;;;;;;;;;5034887;28;20352;-81
2023/05/29 10:55:40;;;;;;;11.13;3.17;;;;;;;;;;5034918;28;20266;-82
2023/05/29 10:58:18;;;;;;;10.85;3.17;;;;;;;;;;5035028;28;20029;-81
2023/05/29 11:00:46;;;;;;;7.55;2.40;;;;;;;;;;5037889;28;20029;-81
2023/05/29 11:03:14;;;;;;;7.85;2.53;;;;;;;;;;5021688;28;20387;-81
2023/05/29 11:05:59;;;;;;;6.68;2.75;;;;;;;;;;5038468;28;20032;-81
2023/05/29 11:08:34;;;;;;;7.03;2.40;;;;;;;;;;5055855;28;20060;-81
2023/05/29 11:11:00;;;;;;;5.85;2.28;;;;;;;;;;5038015;28;20033;-82
2023/05/29 11:13:34;;;;;;;7.75;2.53;;;;;;;;;;5056192;28;20566;-81
2023/05/29 11:16:15;;;;;;;6.72;2.58;;;;;;;;;;5038305;28;20048;-81
2023/05/29 11:18:46;;;;;;;7.32;2.58;;;;;;;;;;5055704;28;20031;-81
2023/05/29 11:21:29;;;;;;;5.07;2.38;;;;;;;;;;5021450;28;20039;-81
2023/05/29 11:23:54;;;;;;;6.75;2.40;;;;;;;;;;5038126;28;20021;-80
2023/05/29 11:26:25;;;;;;;4.65;2.25;;;;;;;;;;5021516;28;20112;-81
2023/05/29 11:28:51;;;;;;;6.82;2.30;;;;;;;;;;5020915;28;20452;-81
2023/05/29 11:31:18;;;;;;;8.30;2.42;;;;;;;;;;5021144;28;20060;-81
2023/05/29 11:33:49;;;;;;;4.93;2.22;;;;;;;;;;5037772;28;20502;-80
2023/05/29 11:36:14;;;;;;;5.00;2.17;;;;;;;;;;5037871;28;20513;-81
2023/05/29 11:38:40;;;;;;;4.60;2.15;;;;;;;;;;5021185;28;20064;-80
2023/05/29 11:41:05;;;;;;;7.25;2.70;;;;;;;;;;5037337;28;20053;-81
2023/05/29 11:43:31;;;;;;;4.38;2.17;;;;;;;;;;5055334;28;20113;-81
2023/05/29 11:45:56;;;;;;;9.73;2.50;;;;;;;;;;5037787;28;20025;-81
2023/05/29 11:48:23;;;;;;;7.32;2.58;;;;;;;;;;5037424;28;20078;-81
2023/05/29 11:50:48;;;;;;;5.47;1.90;;;;;;;;;;5055042;28;20036;-81
2023/05/29 11:53:14;;;;;;;4.28;2.22;;;;;;;;;;5055116;28;20028;-81
2023/05/29 11:55:39;;;;;;;7.18;2.10;;;;;;;;;;5037255;28;20044;-83
2023/05/29 11:58:05;;;;;;;6.30;2.03;;;;;;;;;;5037221;28;20032;-81
2023/05/29 12:00:35;;;;;;;9.55;2.50;;;;;;;;;;5037231;28;20032;-81
2023/05/29 12:03:03;;;;;;;6.75;2.00;;;;;;;;;;5037209;28;20033;-81
2023/05/29 12:05:29;;;;;;;4.55;2.03;;;;;;;;;;5020976;28;20450;-81
2023/05/29 12:08:00;;;;;;;5.25;2.28;;;;;;;;;;5036887;28;20095;-81
2023/05/29 12:10:25;;;;;;;6.18;2.30;;;;;;;;;;5021635;28;20029;-82
2023/05/29 12:12:56;;;;;;;9.25;2.22;;;;;;;;;;5054701;28;20032;-81
2023/05/29 12:15:22;;;;;;;5.30;2.22;;;;;;;;;;5054884;28;20024;-82
2023/05/29 12:17:49;;;;;;;5.93;2.30;;;;;;;;;;5054907;28;20480;-82
2023/05/29 12:20:15;;;;;;;3.70;2.20;;;;;;;;;;5021047;28;20031;-81
2023/05/29 12:22:42;;;;;;;3.88;1.90;;;;;;;;;;5054984;28;20427;-81
2023/05/29 12:25:09;;;;;;;8.38;2.30;;;;;;;;;;5054715;28;20052;-81
2023/05/29 12:27:41;;;;;;;5.70;2.10;;;;;;;;;;5036696;28;20443;-81
2023/05/29 12:30:10;;;;;;;8.52;2.58;;;;;;;;;;5037501;28;20406;-81
2023/05/29 12:32:40;;;;;;;6.53;2.22;;;;;;;;;;5054512;28;20345;-81
2023/05/29 12:35:16;;;;;;;5.90;2.13;;;;;;;;;;5055239;28;20033;-82
2023/05/29 12:37:46;;;;;;;5.78;2.35;;;;;;;;;;5036524;28;20499;-81
2023/05/29 12:40:19;;;;;;;5.68;1.98;;;;;;;;;;5036723;28;20037;-82
2023/05/29 12:42:45;;;;;;;6.75;1.98;;;;;;;;;;5036689;28;20029;-81
2023/05/29 12:45:11;;;;;;;5.68;2.08;;;;;;;;;;5054515;28;20033;-81
2023/05/29 12:47:36;;;;;;;4.82;2.08;;;;;;;;;;5036663;28;20036;-81
2023/05/29 12:50:27;;;;;;;4.43;2.00;;;;;;;;;;5054306;28;20536;-81
2023/05/29 12:52:54;;;;;;;5.05;1.90;;;;;;;;;;5054302;28;20052;-81
2023/05/29 12:55:20;;;;;;;5.85;2.00;;;;;;;;;;5036369;28;20032;-80
2023/05/29 12:57:46;;;;;;;6.07;2.00;;;;;;;;;;5036097;28;20025;-82
2023/05/29 13:00:12;;;;;;;7.00;2.13;;;;;;;;;;5053848;28;20025;-82
2023/05/29 13:02:38;;;;;;;6.60;2.30;;;;;;;;;;5036674;28;20033;-81
2023/05/29 13:05:03;;;;;;;6.80;2.42;;;;;;;;;;5036918;28;20337;-81
2023/05/29 13:07:30;;;;;;;5.90;2.47;;;;;;;;;;5053727;28;20475;-82
2023/05/29 13:09:55;;;;;;;5.22;1.80;;;;;;;;;;5053956;28;20036;-83
2023/05/29 13:12:21;;;;;;;4.70;1.98;;;;;;;;;;5053975;28;20029;-84
2023/05/29 13:14:46;;;;;;;5.95;2.15;;;;;;;;;;5019707;28;20029;-83
2023/05/29 13:17:11;;;;;;;10.32;2.35;;;;;;;;;;5053678;28;20068;-83
2023/05/29 13:19:37;;;;;;;6.53;2.20;;;;;;;;;;5053731;28;20068;-83
2023/05/29 13:22:02;;;;;;;4.32;1.90;;;;;;;;;;5035563;28;20032;-82
2023/05/29 13:24:27;;;;;;;5.03;2.22;;;;;;;;;;5053607;28;20036;-81
2023/05/29 13:26:53;;;;;;;4.43;2.10;;;;;;;;;;5036738;28;20387;-81
2023/05/29 13:29:19;;;;;;;6.47;2.22;;;;;;;;;;5053814;28;20029;-82
2023/05/29 13:31:45;;;;;;;7.40;2.08;;;;;;;;;;5035977;28;20028;-83
2023/05/29 13:34:10;;;;;;;6.22;2.28;;;;;;;;;;5053564;28;20434;-83
2023/05/29 13:36:36;;;;;;;5.25;2.22;;;;;;;;;;5035968;28;20032;-83
2023/05/29 13:39:01;;;;;;;4.70;2.03;;;;;;;;;;5053779;28;20028;-84
2023/05/29 13:41:26;;;;;;;4.55;2.13;;;;;;;;;;5053294;28;20045;-83
2023/05/29 13:43:52;;;;;;;4.50;1.77;;;;;;;;;;5053204;28;20052;-83
2023/05/29 13:46:17;;;;;;;5.75;1.98;;;;;;;;;;5018996;28;20110;-83
2023/05/29 13:48:43;;;;;;;4.78;2.33;;;;;;;;;;5052985;28;20494;-83
2023/05/29 13:51:08;;;;;;;7.70;2.10;;;;;;;;;;5035390;28;20087;-83
2023/05/29 13:53:34;;;;;;;8.65;2.15;;;;;;;;;;5035264;28;20495;-83
2023/05/29 13:55:59;;;;;;;5.68;2.15;;;;;;;;;;5053117;28;20028;-83
2023/05/29 13:58:24;;;;;;;5.43;1.85;;;;;;;;;;5053073;28;20028;-83
2023/05/29 14:00:50;;;;;;;4.53;2.10;;;;;;;;;;5053164;28;20025;-82
2023/05/29 14:03:15;;;;;;;5.35;1.83;;;;;;;;;;5053071;28;20544;-82
2023/05/29 14:05:40;;;;;;;5.78;1.90;;;;;;;;;;5053307;28;20515;-83
2023/05/29 14:08:06;;;;;;;5.50;2.42;;;;;;;;;;5035215;28;20029;-81
2023/05/29 14:10:31;;;;;;;3.90;1.75;;;;;;;;;;5035377;28;20116;-82
2023/05/29 14:12:57;;;;;;;4.72;2.08;;;;;;;;;;5035190;28;20029;-82
2023/05/29 14:15:22;;;;;;;10.88;2.35;;;;;;;;;;5053230;28;20476;-83
2023/05/29 14:17:47;;;;;;;6.40;1.95;;;;;;;;;;5053172;28;20033;-83
2023/05/29 14:20:13;;;;;;;8.32;2.40;;;;;;;;;;5034948;28;20025;-83
2023/05/29 14:22:38;;;;;;;6.85;2.00;;;;;;;;;;5034899;28;20032;-83
2023/05/29 14:25:04;;;;;;;5.53;2.08;;;;;;;;;;5035043;28;20032;-83
2023/05/29 14:27:33;;;;;;;6.32;2.00;;;;;;;;;;5035457;28;20061;-83
2023/05/29 14:29:59;;;;;;;4.47;2.10;;;;;;;;;;5019162;28;20040;-83
2023/05/29 14:32:25;;;;;;;6.13;2.13;;;;;;;;;;5035140;28;20029;-83
2023/05/29 14:34:52;;;;;;;5.38;2.25;;;;;;;;;;5037820;28;20037;-83
2023/05/29 14:37:18;;;;;;;7.07;2.00;;;;;;;;;;5038596;28;20427;-82
2023/05/29 14:39:43;;;;;;;6.45;2.08;;;;;;;;;;5056023;28;20017;-82